sensor_id;sensor_type;location;lat;lon;timestamp;temperature;humidity
2957;DHT22;1488;51.548;7.222;2023-07-31T17:52:04;24.20;99.70
2957;DHT22;1488;51.548;7.222;2023-07-31T17:54:31;24.20;99.70
2957;DHT22;1488;51.548;7.222;2023-07-31T17:56:57;24.20;99.60
2957;DHT22;1488;51.548;7.222;2023-07-31T17:59:24;24.20;99.80
2957;DHT22;1488;51.548;7.222;2023-07-31T18:01:51;24.20;99.60
2957;DHT22;1488;51.548;7.222;2023-07-31T18:04:18;24.20;99.60
2957;DHT22;1488;51.548;7.222;2023-07-31T18:06:45;24.20;99.60
2957;DHT22;1488;51.548;7.222;2023-07-31T18:09:13;24.30;99.60
2957;DHT22;1488;51.548;7.222;2023-07-31T18:11:39;24.30;99.60
2957;DHT22;1488;51.548;7.222;2023-07-31T18:14:06;24.30;99.60
2957;DHT22;1488;51.548;7.222;2023-07-31T18:16:33;24.20;99.50
2957;DHT22;1488;51.548;7.222;2023-07-31T18:19:00;24.20;99.60
2957;DHT22;1488;51.548;7.222;2023-07-31T18:21:26;24.20;99.50
2957;DHT22;1488;51.548;7.222;2023-07-31T18:23:54;24.20;99.50
2957;DHT22;1488;51.548;7.222;2023-07-31T18:26:22;24.20;99.50
2957;DHT22;1488;51.548;7.222;2023-07-31T18:28:49;24.30;99.60
2957;DHT22;1488;51.548;7.222;2023-07-31T18:31:16;24.20;99.40
2957;DHT22;1488;51.548;7.222;2023-07-31T18:33:42;24.20;99.50
2957;DHT22;1488;51.548;7.222;2023-07-31T18:36:09;24.20;99.50
2957;DHT22;1488;51.548;7.222;2023-07-31T18:38:36;24.20;99.90
2957;DHT22;1488;51.548;7.222;2023-07-31T18:41:05;24.20;99.50
2957;DHT22;1488;51.548;7.222;2023-07-31T18:43:33;24.20;99.60
2957;DHT22;1488;51.548;7.222;2023-07-31T18:46:01;24.20;99.60
2957;DHT22;1488;51.548;7.222;2023-07-31T18:48:28;24.20;99.50
2957;DHT22;1488;51.548;7.222;2023-07-31T18:50:56;24.20;99.50
2957;DHT22;1488;51.548;7.222;2023-07-31T18:53:23;24.40;99.70
2957;DHT22;1488;51.548;7.222;2023-07-31T18:55:51;24.30;99.60
2957;DHT22;1488;51.548;7.222;2023-07-31T18:58:18;24.30;99.60
2957;DHT22;1488;51.548;7.222;2023-07-31T19:00:46;24.30;99.50
2957;DHT22;1488;51.548;7.222;2023-07-31T19:03:13;24.30;99.50
2957;DHT22;1488;51.548;7.222;2023-07-31T19:05:41;24.30;99.50
2957;DHT22;1488;51.548;7.222;2023-07-31T19:08:08;24.30;99.50
2957;DHT22;1488;51.548;7.222;2023-07-31T19:10:35;24.30;99.40
2957;DHT22;1488;51.548;7.222;2023-07-31T19:13:02;24.30;99.40
2957;DHT22;1488;51.548;7.222;2023-07-31T19:15:31;24.30;99.60
2957;DHT22;1488;51.548;7.222;2023-07-31T19:17:59;24.40;99.60
2957;DHT22;1488;51.548;7.222;2023-07-31T19:20:26;24.40;99.60
2957;DHT22;1488;51.548;7.222;2023-07-31T19:22:53;24.30;99.50
2957;DHT22;1488;51.548;7.222;2023-07-31T19:25:20;24.30;99.70
2957;DHT22;1488;51.548;7.222;2023-07-31T19:27:47;24.30;99.70
2957;DHT22;1488;51.548;7.222;2023-07-31T19:30:13;24.40;99.70
2957;DHT22;1488;51.548;7.222;2023-07-31T19:32:40;24.30;99.50
2957;DHT22;1488;51.548;7.222;2023-07-31T19:35:11;24.40;99.60
2957;DHT22;1488;51.548;7.222;2023-07-31T19:37:38;24.40;99.70
2957;DHT22;1488;51.548;7.222;2023-07-31T19:40:06;24.40;99.80
2957;DHT22;1488;51.548;7.222;2023-07-31T19:42:32;24.40;99.70
2957;DHT22;1488;51.548;7.222;2023-07-31T19:45:01;24.40;99.70
2957;DHT22;1488;51.548;7.222;2023-07-31T19:47:28;24.40;99.90
2957;DHT22;1488;51.548;7.222;2023-07-31T19:49:55;24.40;99.70
2957;DHT22;1488;51.548;7.222;2023-07-31T19:52:23;24.40;99.60
2957;DHT22;1488;51.548;7.222;2023-07-31T19:54:50;24.30;99.50
2957;DHT22;1488;51.548;7.222;2023-07-31T19:57:17;24.30;99.50
2957;DHT22;1488;51.548;7.222;2023-07-31T19:59:44;24.30;99.50
2957;DHT22;1488;51.548;7.222;2023-07-31T20:02:11;24.30;99.50
2957;DHT22;1488;51.548;7.222;2023-07-31T20:04:38;24.30;99.50
2957;DHT22;1488;51.548;7.222;2023-07-31T20:07:05;24.30;99.70
2957;DHT22;1488;51.548;7.222;2023-07-31T20:09:34;24.30;99.90
2957;DHT22;1488;51.548;7.222;2023-07-31T20:12:00;24.30;99.90
2957;DHT22;1488;51.548;7.222;2023-07-31T20:14:27;24.40;99.80
2957;DHT22;1488;51.548;7.222;2023-07-31T20:16:54;24.30;99.80
2957;DHT22;1488;51.548;7.222;2023-07-31T20:19:21;24.30;99.80
2957;DHT22;1488;51.548;7.222;2023-07-31T20:21:48;24.30;99.80
2957;DHT22;1488;51.548;7.222;2023-07-31T20:24:15;24.30;99.90
2957;DHT22;1488;51.548;7.222;2023-07-31T20:26:43;24.20;99.60
2957;DHT22;1488;51.548;7.222;2023-07-31T20:29:09;24.30;99.70
2957;DHT22;1488;51.548;7.222;2023-07-31T20:31:36;24.30;99.70
2957;DHT22;1488;51.548;7.222;2023-07-31T20:34:05;24.30;99.70
2957;DHT22;1488;51.548;7.222;2023-07-31T20:36:33;24.30;99.90
2957;DHT22;1488;51.548;7.222;2023-07-31T20:39:00;24.30;99.90
2957;DHT22;1488;51.548;7.222;2023-07-31T20:41:27;24.30;99.90
2957;DHT22;1488;51.548;7.222;2023-07-31T20:43:56;24.30;99.90
2957;DHT22;1488;51.548;7.222;2023-07-31T20:46:22;24.30;99.90
2957;DHT22;1488;51.548;7.222;2023-07-31T20:48:49;24.30;99.80
2957;DHT22;1488;51.548;7.222;2023-07-31T20:51:16;24.30;99.90
2957;DHT22;1488;51.548;7.222;2023-07-31T20:53:43;24.30;99.90
2957;DHT22;1488;51.548;7.222;2023-07-31T20:56:10;24.40;99.90
2957;DHT22;1488;51.548;7.222;2023-07-31T20:58:37;24.40;99.90
2957;DHT22;1488;51.548;7.222;2023-07-31T21:01:05;24.40;99.90
2957;DHT22;1488;51.548;7.222;2023-07-31T21:03:33;24.40;99.80
2957;DHT22;1488;51.548;7.222;2023-07-31T21:06:00;24.40;99.80
2957;DHT22;1488;51.548;7.222;2023-07-31T21:08:27;24.40;99.80
2957;DHT22;1488;51.548;7.222;2023-07-31T21:10:53;24.40;99.80
2957;DHT22;1488;51.548;7.222;2023-07-31T21:13:20;24.40;99.80
2957;DHT22;1488;51.548;7.222;2023-07-31T21:15:47;24.40;99.90
2957;DHT22;1488;51.548;7.222;2023-07-31T21:18:15;24.40;99.90
2957;DHT22;1488;51.548;7.222;2023-07-31T21:20:46;24.40;99.80
2957;DHT22;1488;51.548;7.222;2023-07-31T21:23:13;24.40;99.80
2957;DHT22;1488;51.548;7.222;2023-07-31T21:25:40;24.40;99.80
2957;DHT22;1488;51.548;7.222;2023-07-31T21:28:07;24.40;99.80
2957;DHT22;1488;51.548;7.222;2023-07-31T21:30:36;24.40;99.80
2957;DHT22;1488;51.548;7.222;2023-07-31T21:33:03;24.40;99.90
2957;DHT22;1488;51.548;7.222;2023-07-31T21:35:31;24.40;99.80
2957;DHT22;1488;51.548;7.222;2023-07-31T21:37:58;24.40;99.70
2957;DHT22;1488;51.548;7.222;2023-07-31T21:40:25;24.40;99.80
2957;DHT22;1488;51.548;7.222;2023-07-31T21:42:52;24.30;99.60
2957;DHT22;1488;51.548;7.222;2023-07-31T21:45:20;24.30;99.60
2957;DHT22;1488;51.548;7.222;2023-07-31T21:47:48;24.30;99.70
2957;DHT22;1488;51.548;7.222;2023-07-31T21:50:15;24.30;99.70
2957;DHT22;1488;51.548;7.222;2023-07-31T21:52:44;24.30;99.60
2957;DHT22;1488;51.548;7.222;2023-07-31T21:55:11;24.30;99.70
2957;DHT22;1488;51.548;7.222;2023-07-31T21:57:38;24.30;99.90
2957;DHT22;1488;51.548;7.222;2023-07-31T22:00:06;24.30;99.80
2957;DHT22;1488;51.548;7.222;2023-07-31T22:02:33;24.30;99.80
2957;DHT22;1488;51.548;7.222;2023-07-31T22:05:02;24.30;99.80
2957;DHT22;1488;51.548;7.222;2023-07-31T22:07:29;24.30;99.90
2957;DHT22;1488;51.548;7.222;2023-07-31T22:09:57;24.30;99.80
2957;DHT22;1488;51.548;7.222;2023-07-31T22:12:25;24.30;99.90
2957;DHT22;1488;51.548;7.222;2023-07-31T22:14:52;24.30;99.90
2957;DHT22;1488;51.548;7.222;2023-07-31T22:17:19;24.30;99.90
2957;DHT22;1488;51.548;7.222;2023-07-31T22:19:45;24.30;99.80
2957;DHT22;1488;51.548;7.222;2023-07-31T22:22:12;24.30;99.90
2957;DHT22;1488;51.548;7.222;2023-07-31T22:24:40;24.30;99.90
2957;DHT22;1488;51.548;7.222;2023-07-31T22:27:08;24.30;99.60
2957;DHT22;1488;51.548;7.222;2023-07-31T22:29:35;24.20;99.70
2957;DHT22;1488;51.548;7.222;2023-07-31T22:32:02;24.30;99.70
2957;DHT22;1488;51.548;7.222;2023-07-31T22:34:31;24.30;99.80
2957;DHT22;1488;51.548;7.222;2023-07-31T22:36:57;24.20;99.70
2957;DHT22;1488;51.548;7.222;2023-07-31T22:39:24;24.30;99.70
2957;DHT22;1488;51.548;7.222;2023-07-31T22:41:51;24.20;99.70
2957;DHT22;1488;51.548;7.222;2023-07-31T22:44:19;24.20;99.60
2957;DHT22;1488;51.548;7.222;2023-07-31T22:46:46;24.20;99.60
2957;DHT22;1488;51.548;7.222;2023-07-31T22:49:13;24.20;99.60
2957;DHT22;1488;51.548;7.222;2023-07-31T22:51:40;24.20;99.60
2957;DHT22;1488;51.548;7.222;2023-07-31T22:54:06;24.20;99.60
2957;DHT22;1488;51.548;7.222;2023-07-31T22:56:33;24.20;99.60
2957;DHT22;1488;51.548;7.222;2023-07-31T22:59:00;24.20;99.90
2957;DHT22;1488;51.548;7.222;2023-07-31T23:01:28;24.20;99.60
2957;DHT22;1488;51.548;7.222;2023-07-31T23:03:55;24.30;99.80
2957;DHT22;1488;51.548;7.222;2023-07-31T23:06:22;24.30;99.80
2957;DHT22;1488;51.548;7.222;2023-07-31T23:08:49;24.20;99.60
2957;DHT22;1488;51.548;7.222;2023-07-31T23:11:16;24.20;99.60
2957;DHT22;1488;51.548;7.222;2023-07-31T23:13:43;24.20;99.70
2957;DHT22;1488;51.548;7.222;2023-07-31T23:16:09;24.20;99.60
2957;DHT22;1488;51.548;7.222;2023-07-31T23:18:37;24.20;99.60
2957;DHT22;1488;51.548;7.222;2023-07-31T23:21:04;24.20;99.70
2957;DHT22;1488;51.548;7.222;2023-07-31T23:23:31;24.20;99.60
2957;DHT22;1488;51.548;7.222;2023-07-31T23:25:58;24.20;99.50
2957;DHT22;1488;51.548;7.222;2023-07-31T23:28:25;24.20;99.60
2957;DHT22;1488;51.548;7.222;2023-07-31T23:30:51;24.20;99.60
2957;DHT22;1488;51.548;7.222;2023-07-31T23:33:18;24.20;99.50
2957;DHT22;1488;51.548;7.222;2023-07-31T23:35:46;24.20;99.40
2957;DHT22;1488;51.548;7.222;2023-07-31T23:38:13;24.20;99.50
2957;DHT22;1488;51.548;7.222;2023-07-31T23:40:40;24.20;99.50
2957;DHT22;1488;51.548;7.222;2023-07-31T23:43:07;24.20;99.40
2957;DHT22;1488;51.548;7.222;2023-07-31T23:45:33;24.20;99.50
2957;DHT22;1488;51.548;7.222;2023-07-31T23:48:00;24.20;99.20
2957;DHT22;1488;51.548;7.222;2023-07-31T23:50:27;24.20;99.30
2957;DHT22;1488;51.548;7.222;2023-07-31T23:52:56;24.20;99.40
2957;DHT22;1488;51.548;7.222;2023-07-31T23:55:23;24.20;99.60
2957;DHT22;1488;51.548;7.222;2023-07-31T23:57:50;24.20;99.50
